Time;durP1;ratioP1;P1;durP2;ratioP2;P2;SDS_P1;SDS_P2;PMS_P1;PMS_P2;Temp;Humidity;BMP_temperature;BMP_pressure;BME280_temperature;BME280_humidity;BME280_pressure;Samples;Min_cycle;Max_cycle;Signal;HPM_P1;HPM_P2
2022/11/07 00:01:11;;;;;;;;;31.00;25.80;;;;;13.35;73.46;98840.97;6262706;27;96595;-63
2022/11/07 00:04:15;;;;;;;;;26.00;24.00;;;;;13.36;73.55;98832.63;6263532;27;96332;-61
2022/11/07 00:07:20;;;;;;;;;31.75;25.75;;;;;13.34;73.55;98837.44;6262806;27;96319;-62
2022/11/07 00:10:23;;;;;;;;;28.00;24.00;;;;;13.34;73.53;98832.03;6263687;27;96781;-62
2022/11/07 00:13:27;;;;;;;;;28.00;23.40;;;;;13.36;73.56;98842.63;6264292;27;96442;-61
2022/11/07 00:16:31;;;;;;;;;29.20;24.80;;;;;13.32;72.88;98839.59;6256222;27;96744;-61
2022/11/07 00:19:34;;;;;;;;;26.60;24.00;;;;;13.35;72.93;98838.25;6251597;27;96912;-61
2022/11/07 00:22:39;;;;;;;;;25.00;22.33;;;;;13.39;72.61;98826.72;6262360;27;96437;-61
2022/11/07 00:25:42;;;;;;;;;25.50;22.50;;;;;13.34;72.61;98828.53;6238929;27;96319;-61
2022/11/07 00:28:46;;;;;;;;;30.75;27.50;;;;;13.26;72.56;98823.47;6245037;27;96857;-61
2022/11/07 00:31:50;;;;;;;;;25.80;23.00;;;;;13.24;72.58;98821.00;6262844;27;96886;-61
2022/11/07 00:34:53;;;;;;;;;26.00;22.00;;;;;13.30;72.62;98822.75;6260353;27;96892;-61
2022/11/07 00:37:58;;;;;;;;;28.50;24.00;;;;;13.33;72.27;98818.75;6242925;27;96677;-60
2022/11/07 00:41:03;;;;;;;;;24.00;21.00;;;;;13.07;71.96;98786.78;6244807;27;96689;-61
2022/11/07 00:44:06;;;;;;;;;26.00;22.00;;;;;13.12;72.04;98795.84;6242996;27;96703;-61
2022/11/07 00:47:09;;;;;;;;;25.00;22.75;;;;;13.25;71.95;98816.41;6249089;27;96305;-61
2022/11/07 00:50:13;;;;;;;;;24.00;20.25;;;;;13.20;72.22;98811.72;6237506;28;96675;-61
2022/11/07 00:53:18;;;;;;;;;22.00;21.00;;;;;13.10;71.92;98789.00;6239760;27;96858;-61
2022/11/07 00:56:24;;;;;;;;;25.00;23.00;;;;;13.13;72.19;98807.50;6243268;27;96520;-61
2022/11/07 00:59:28;;;;;;;;;23.75;21.00;;;;;13.01;72.20;98797.50;6245223;27;96547;-61
2022/11/07 01:02:31;;;;;;;;;23.80;20.00;;;;;13.10;72.30;98816.06;6228707;27;96853;-61
2022/11/07 01:05:34;;;;;;;;;28.00;25.50;;;;;13.05;72.48;98805.94;6250701;27;97552;-61
2022/11/07 01:08:38;;;;;;;;;21.00;19.00;;;;;13.10;72.26;98803.34;6231405;28;98396;-61
2022/11/07 01:11:42;;;;;;;;;24.00;21.40;;;;;13.09;72.26;98801.72;6237898;28;96431;-61
2022/11/07 01:14:45;;;;;;;;;24.00;20.60;;;;;13.08;71.93;98808.19;6237760;28;96932;-61
2022/11/07 01:17:49;;;;;;;;;21.00;20.00;;;;;13.00;71.90;98803.13;6252450;27;97494;-63
2022/11/07 01:20:53;;;;;;;;;21.00;20.00;;;;;12.80;71.70;98778.38;6237767;28;96333;-61
2022/11/07 01:23:59;;;;;;;;;24.75;20.50;;;;;12.91;72.29;98800.00;6221291;27;98849;-61
2022/11/07 01:27:02;;;;;;;;;22.00;20.00;;;;;12.91;72.19;98793.75;6242633;27;96927;-62
2022/11/07 01:30:07;;;;;;;;;22.20;20.60;;;;;12.91;72.08;98791.88;6248252;27;97025;-61
2022/11/07 01:33:10;;;;;;;;;21.40;18.40;;;;;12.79;71.57;98785.69;6238594;28;96581;-61
2022/11/07 01:36:17;;;;;;;;;21.00;18.50;;;;;12.82;71.96;98787.91;6234895;27;96678;-61
2022/11/07 01:39:22;;;;;;;;;22.00;19.60;;;;;12.82;71.84;98785.19;6256165;27;96787;-61
2022/11/07 01:42:26;;;;;;;;;22.60;20.40;;;;;12.71;71.61;98774.38;6264205;27;96833;-61
2022/11/07 01:45:30;;;;;;;;;21.80;18.60;;;;;12.71;71.42;98771.69;6238982;27;97414;-61
2022/11/07 01:48:34;;;;;;;;;21.00;19.00;;;;;12.67;71.62;98771.34;6246807;27;96913;-61
2022/11/07 01:51:52;;;;;;;;;22.00;20.00;;;;;12.71;71.98;98760.84;6203853;27;96688;-61
2022/11/07 01:55:01;;;;;;;;;19.00;18.00;;;;;12.74;72.25;98763.09;6251478;27;96306;-60
2022/11/07 01:58:09;;;;;;;;;20.40;18.60;;;;;12.78;72.22;98766.97;6224985;27;97005;-61
2022/11/07 02:01:12;;;;;;;;;21.20;18.00;;;;;12.82;71.65;98766.25;6245998;27;96620;-62
2022/11/07 02:04:17;;;;;;;;;22.60;20.60;;;;;12.82;71.83;98752.72;6263500;27;96291;-61
2022/11/07 02:07:23;;;;;;;;;21.00;19.00;;;;;12.87;71.47;98754.72;6232769;28;96783;-60
2022/11/07 02:10:28;;;;;;;;;21.50;19.50;;;;;12.91;71.52;98750.47;6243033;27;96242;-61
2022/11/07 02:13:32;;;;;;;;;21.75;20.75;;;;;12.92;71.28;98761.06;6233685;27;96357;-60
2022/11/07 02:16:36;;;;;;;;;19.60;18.60;;;;;12.92;71.31;98760.22;6254100;27;96316;-61
2022/11/07 02:19:43;;;;;;;;;21.60;20.80;;;;;12.91;71.38;98754.00;6247876;27;96569;-61
2022/11/07 02:22:52;;;;;;;;;21.20;19.80;;;;;12.93;71.55;98751.06;6249765;27;96272;-60
2022/11/07 02:25:57;;;;;;;;;22.60;19.00;;;;;12.95;71.66;98749.75;6221552;27;96693;-62
2022/11/07 02:29:05;;;;;;;;;19.50;18.00;;;;;12.97;71.23;98749.50;6238241;27;96686;-60
2022/11/07 02:32:11;;;;;;;;;21.20;20.20;;;;;12.96;71.10;98737.84;6236675;28;96258;-62
2022/11/07 02:35:34;;;;;;;;;21.50;20.00;;;;;12.98;70.83;98740.34;6219578;28;96521;-63
2022/11/07 02:38:38;;;;;;;;;20.60;19.60;;;;;12.98;70.63;98748.44;6250468;27;97720;-62
2022/11/07 02:41:42;;;;;;;;;19.75;18.00;;;;;12.96;70.68;98742.44;6262869;27;96340;-62
2022/11/07 02:44:47;;;;;;;;;22.00;21.20;;;;;12.91;70.21;98739.63;6256634;27;96429;-61
2022/11/07 02:47:51;;;;;;;;;23.00;21.00;;;;;12.95;70.13;98741.63;6238435;27;96997;-60
2022/11/07 02:50:54;;;;;;;;;22.60;20.00;;;;;12.92;70.21;98735.88;6240424;27;96324;-66
2022/11/07 02:53:57;;;;;;;;;22.00;19.40;;;;;12.93;70.05;98735.66;6238029;28;96280;-60
2022/11/07 02:57:02;;;;;;;;;23.20;19.80;;;;;12.92;69.93;98731.28;6237666;27;96918;-62
2022/11/07 03:00:08;;;;;;;;;24.00;21.00;;;;;12.96;69.76;98731.63;6237318;28;96307;-61
2022/11/07 03:03:12;;;;;;;;;23.20;20.00;;;;;12.90;69.77;98728.00;6257787;27;97625;-61
2022/11/07 03:06:19;;;;;;;;;22.50;20.50;;;;;12.90;69.85;98727.19;6242411;27;96712;-61
2022/11/07 03:09:22;;;;;;;;;18.20;15.80;;;;;12.88;69.64;98724.72;6239295;27;96368;-62
2022/11/07 03:12:27;;;;;;;;;18.25;17.25;;;;;12.85;70.08;98733.31;6234136;27;96372;-61
2022/11/07 03:15:30;;;;;;;;;20.20;18.60;;;;;12.74;69.92;98720.66;6262268;27;96367;-61
2022/11/07 03:18:33;;;;;;;;;19.00;18.00;;;;;12.82;69.84;98722.97;6243923;27;96434;-60
2022/11/07 03:21:37;;;;;;;;;22.40;21.00;;;;;12.74;69.87;98728.78;6256463;27;96508;-61
2022/11/07 03:24:40;;;;;;;;;19.00;17.40;;;;;12.68;69.92;98723.47;6253202;27;96857;-61
2022/11/07 03:27:49;;;;;;;;;20.00;18.00;;;;;12.76;69.77;98734.75;6239862;27;96315;-61
2022/11/07 03:30:53;;;;;;;;;20.80;17.40;;;;;12.76;69.88;98726.63;6252598;27;96866;-60
2022/11/07 03:33:57;;;;;;;;;19.00;16.00;;;;;12.67;69.76;98724.53;6256009;27;96508;-61
2022/11/07 03:37:00;;;;;;;;;19.00;17.00;;;;;12.66;69.94;98726.41;6223352;27;96672;-60
2022/11/07 03:40:04;;;;;;;;;17.25;16.00;;;;;12.63;69.96;98729.59;6239879;27;96369;-60
2022/11/07 03:43:09;;;;;;;;;19.60;17.00;;;;;12.58;69.83;98724.09;6236916;28;96904;-60
2022/11/07 03:46:12;;;;;;;;;18.75;16.00;;;;;12.56;70.08;98718.91;6242565;27;96366;-63
2022/11/07 03:49:16;;;;;;;;;19.40;15.00;;;;;12.50;69.71;98725.28;6219418;28;97330;-61
2022/11/07 03:52:19;;;;;;;;;15.00;15.00;;;;;12.48;69.94;98730.09;6218286;28;96835;-61
2022/11/07 03:55:22;;;;;;;;;18.50;15.75;;;;;12.48;70.16;98722.00;6250995;27;96244;-60
2022/11/07 03:58:27;;;;;;;;;20.40;17.00;;;;;12.53;70.20;98723.97;6243317;27;96695;-60
2022/11/07 04:01:30;;;;;;;;;17.80;15.40;;;;;12.54;70.35;98725.63;6248652;27;96274;-60
2022/11/07 04:04:34;;;;;;;;;19.40;17.40;;;;;12.54;70.84;98725.63;6242631;27;96864;-60
2022/11/07 04:07:37;;;;;;;;;20.60;18.60;;;;;12.53;70.84;98738.34;6248570;27;96237;-61
2022/11/07 04:10:40;;;;;;;;;19.00;18.00;;;;;12.55;71.13;98727.28;6264476;27;96997;-60
2022/11/07 04:17:19;;;;;;;;;15.60;15.00;;;;;12.52;71.30;98708.81;6243229;27;96278;-60
2022/11/07 04:20:22;;;;;;;;;16.25;15.25;;;;;12.52;71.34;98719.63;6257211;27;96254;-61
2022/11/07 04:23:26;;;;;;;;;14.60;14.00;;;;;12.53;71.58;98715.88;6265846;27;96266;-60
2022/11/07 04:29:51;;;;;;;;;17.40;17.40;;;;;12.61;71.41;98710.09;6242261;27;96465;-61
2022/11/07 04:32:56;;;;;;;;;16.00;15.00;;;;;12.64;71.35;98709.63;6258821;27;96893;-62
2022/11/07 04:36:00;;;;;;;;;16.40;15.00;;;;;12.63;71.14;98710.69;6246765;27;98931;-60
2022/11/07 04:39:03;;;;;;;;;17.00;15.00;;;;;12.74;71.03;98703.59;6250889;27;96672;-61
2022/11/07 04:42:06;;;;;;;;;15.40;13.80;;;;;12.74;70.59;98703.59;6253405;27;96828;-60
2022/11/07 04:45:12;;;;;;;;;14.75;13.75;;;;;12.76;70.87;98706.88;6262665;27;96645;-62
2022/11/07 04:48:16;;;;;;;;;16.00;15.00;;;;;12.75;70.75;98707.94;6255767;27;96351;-62
2022/11/07 04:51:22;;;;;;;;;19.00;16.80;;;;;12.76;70.86;98704.16;6239858;28;96365;-61
2022/11/07 04:54:26;;;;;;;;;19.00;15.25;;;;;12.66;71.06;98709.41;6243165;27;96398;-61
2022/11/07 04:57:29;;;;;;;;;16.00;16.00;;;;;12.67;71.44;98698.31;6249036;27;96301;-61
2022/11/07 05:00:34;;;;;;;;;19.40;16.40;;;;;12.69;71.15;98693.50;6239770;27;96424;-61
2022/11/07 05:03:37;;;;;;;;;17.60;16.00;;;;;12.64;71.36;98704.22;6242490;27;96946;-61
2022/11/07 05:06:44;;;;;;;;;17.20;14.20;;;;;12.68;71.69;98704.53;6245727;27;96495;-60
2022/11/07 05:09:48;;;;;;;;;18.40;17.00;;;;;12.74;71.71;98701.72;6238076;27;97047;-61
2022/11/07 05:12:51;;;;;;;;;19.00;15.40;;;;;12.78;71.44;98702.88;6240350;27;96802;-62
2022/11/07 05:15:56;;;;;;;;;17.00;16.00;;;;;12.77;71.24;98695.81;6246923;27;96748;-62
2022/11/07 05:18:59;;;;;;;;;18.60;17.00;;;;;12.73;71.24;98691.94;6251110;27;96352;-62
2022/11/07 05:25:23;;;;;;;;;19.60;16.00;;;;;12.72;71.09;98682.19;6242576;27;96836;-60
2022/11/07 05:28:28;;;;;;;;;18.20;16.20;;;;;12.63;71.22;98666.59;6248651;27;96272;-61
2022/11/07 05:31:41;;;;;;;;;22.00;19.00;;;;;12.68;71.14;98685.63;6250779;27;96428;-64
2022/11/07 05:34:45;;;;;;;;;18.20;16.20;;;;;12.69;71.43;98684.56;6235383;27;96373;-60
2022/11/07 05:37:48;;;;;;;;;18.00;16.50;;;;;12.76;71.26;98687.94;6249381;27;96737;-60
2022/11/07 05:40:51;;;;;;;;;22.00;17.60;;;;;12.84;71.10;98699.22;6231830;27;96686;-61
2022/11/07 05:43:54;;;;;;;;;22.00;20.00;;;;;12.90;71.13;98703.63;6251810;27;96199;-62
2022/11/07 05:47:00;;;;;;;;;18.00;17.00;;;;;12.96;71.06;98710.81;6234749;27;96833;-60
2022/11/07 05:50:03;;;;;;;;;21.00;19.40;;;;;13.03;70.94;98705.25;6258773;27;96516;-61
2022/11/07 05:53:07;;;;;;;;;18.20;15.00;;;;;13.12;71.03;98709.25;6255241;27;96415;-65
2022/11/07 05:56:10;;;;;;;;;19.00;18.00;;;;;13.23;70.86;98721.09;6224926;27;96691;-63
2022/11/07 05:59:14;;;;;;;;;21.80;18.60;;;;;13.27;70.68;98720.34;6257032;27;96278;-63
2022/11/07 06:02:19;;;;;;;;;19.25;17.00;;;;;13.30;70.36;98722.56;6251768;27;96821;-62
2022/11/07 06:05:23;;;;;;;;;21.00;18.60;;;;;13.32;70.43;98731.28;6230545;27;96711;-61
2022/11/07 06:08:26;;;;;;;;;17.20;16.60;;;;;13.36;70.38;98735.13;6252363;27;96875;-61
2022/11/07 06:11:31;;;;;;;;;18.25;17.25;;;;;13.47;69.96;98735.31;6246990;27;96411;-63
2022/11/07 06:14:34;;;;;;;;;19.00;17.00;;;;;13.56;69.73;98747.41;6249253;27;96873;-61
2022/11/07 06:17:39;;;;;;;;;19.00;17.50;;;;;13.63;69.68;98761.63;6251753;27;96292;-61
2022/11/07 06:20:43;;;;;;;;;21.00;18.40;;;;;13.67;70.08;98754.66;6248777;27;96919;-62
2022/11/07 06:23:46;;;;;;;;;21.80;17.00;;;;;13.81;69.55;98775.75;6229239;27;97417;-61
2022/11/07 06:26:50;;;;;;;;;18.00;15.00;;;;;13.90;69.56;98770.75;6253493;27;96116;-61
2022/11/07 06:29:53;;;;;;;;;17.00;16.00;;;;;13.99;69.25;98771.16;6254703;27;96576;-61
2022/11/07 06:33:01;;;;;;;;;16.00;14.00;;;;;14.03;68.43;98777.72;6260045;27;97585;-61
2022/11/07 06:36:06;;;;;;;;;20.40;18.80;;;;;14.06;68.06;98786.19;6238961;27;97000;-62
2022/11/07 06:39:09;;;;;;;;;24.40;18.00;;;;;14.08;68.23;98789.47;6254228;27;96707;-62
2022/11/07 06:42:12;;;;;;;;;19.00;17.00;;;;;14.10;68.34;98791.94;6249236;27;96288;-63
2022/11/07 06:45:16;;;;;;;;;19.75;17.75;;;;;14.15;68.03;98786.59;6241419;27;96229;-62
2022/11/07 06:48:21;;;;;;;;;21.00;19.00;;;;;14.19;67.85;98795.88;6257397;27;96791;-62
2022/11/07 06:51:24;;;;;;;;;18.60;16.00;;;;;14.13;67.66;98780.59;6239944;27;96494;-61
2022/11/07 06:54:27;;;;;;;;;18.00;17.00;;;;;14.32;67.46;98799.06;6236834;28;96947;-61
2022/11/07 06:57:30;;;;;;;;;18.60;17.60;;;;;14.41;67.01;98791.38;6244935;27;96396;-62
2022/11/07 07:00:36;;;;;;;;;19.00;18.00;;;;;14.49;66.64;98800.97;6237620;27;96495;-62
2022/11/07 07:03:42;;;;;;;;;20.00;17.00;;;;;14.53;66.05;98794.81;6237048;27;96494;-62
2022/11/07 07:06:45;;;;;;;;;18.20;15.20;;;;;14.60;65.90;98798.19;6250004;27;96889;-61
2022/11/07 07:09:49;;;;;;;;;19.60;17.60;;;;;14.67;66.22;98787.94;6261727;27;96275;-61
2022/11/07 07:12:53;;;;;;;;;21.40;18.40;;;;;14.74;65.74;98790.50;6260475;27;96258;-61
2022/11/07 07:15:58;;;;;;;;;22.00;18.00;;;;;14.82;65.64;98791.94;6240070;27;96297;-61
2022/11/07 07:19:03;;;;;;;;;24.00;20.50;;;;;14.93;65.22;98799.97;6237243;27;97069;-61
2022/11/07 07:22:06;;;;;;;;;19.60;17.60;;;;;15.06;65.01;98796.88;6237483;27;96003;-61
2022/11/07 07:25:10;;;;;;;;;21.00;17.00;;;;;15.19;64.66;98798.41;6237118;28;96458;-61
2022/11/07 07:28:14;;;;;;;;;18.20;16.00;;;;;15.16;63.76;98797.00;6236261;28;96251;-62
2022/11/07 07:31:21;;;;;;;;;19.40;18.40;;;;;15.33;63.73;98813.25;6239081;27;97018;-61
2022/11/07 07:34:26;;;;;;;;;21.00;19.00;;;;;15.36;63.19;98815.44;6237152;27;96589;-59
2022/11/07 07:37:30;;;;;;;;;21.00;18.25;;;;;15.41;62.93;98799.19;6226385;28;96715;-60
2022/11/07 07:40:33;;;;;;;;;18.60;17.00;;;;;15.44;62.47;98792.44;6239893;27;97809;-63
2022/11/07 07:43:36;;;;;;;;;24.00;20.00;;;;;15.53;62.29;98802.63;6260902;27;96138;-62
2022/11/07 07:46:40;;;;;;;;;21.40;19.40;;;;;15.65;62.27;98791.59;6266270;27;96600;-61
2022/11/07 07:49:44;;;;;;;;;20.00;16.00;;;;;15.75;61.82;98786.25;6261184;27;96317;-61
2022/11/07 07:52:47;;;;;;;;;20.60;17.40;;;;;15.92;61.70;98784.25;6243342;27;96572;-61
2022/11/07 07:55:55;;;;;;;;;16.25;15.50;;;;;15.99;61.41;98778.56;6253690;27;96948;-61
2022/11/07 07:58:58;;;;;;;;;18.00;15.00;;;;;16.23;60.58;98768.97;6238906;28;96474;-63
2022/11/07 08:02:02;;;;;;;;;18.60;15.00;;;;;16.48;59.77;98776.50;6244528;27;96855;-64
2022/11/07 08:05:08;;;;;;;;;21.25;18.00;;;;;16.91;59.29;98780.84;6226932;27;96669;-62
2022/11/07 08:08:11;;;;;;;;;17.60;15.60;;;;;17.39;58.83;98784.31;6261067;27;97029;-61
2022/11/07 08:11:15;;;;;;;;;16.40;16.00;;;;;17.51;57.50;98782.16;6239489;27;96691;-63
2022/11/07 08:14:18;;;;;;;;;15.00;14.00;;;;;17.48;57.20;98782.72;6249089;27;96543;-61
2022/11/07 08:17:22;;;;;;;;;46.25;38.75;;;;;17.43;57.36;98788.13;6253256;27;96373;-63
2022/11/07 08:20:27;;;;;;;;;19.20;18.80;;;;;17.38;57.83;98786.22;6245997;27;96522;-62
2022/11/07 08:23:30;;;;;;;;;19.60;16.60;;;;;17.29;58.18;98780.47;6243662;27;96714;-63
2022/11/07 08:26:34;;;;;;;;;19.40;16.00;;;;;17.24;57.87;98779.63;6242493;27;98024;-64
2022/11/07 08:29:37;;;;;;;;;19.00;17.60;;;;;17.39;56.66;98782.41;6223010;27;97102;-61
2022/11/07 08:32:40;;;;;;;;;19.00;18.00;;;;;17.82;55.97;98794.81;6238211;28;96260;-62
2022/11/07 08:35:45;;;;;;;;;19.00;17.60;;;;;18.27;54.18;98788.53;6222136;28;96333;-61
2022/11/07 08:38:48;;;;;;;;;22.00;19.00;;;;;18.87;52.72;98798.56;6240216;27;96428;-61
2022/11/07 08:41:51;;;;;;;;;22.25;21.25;;;;;19.97;50.08;98801.06;6236063;27;97051;-62
2022/11/07 08:44:55;;;;;;;;;17.40;17.00;;;;;21.96;44.87;98804.09;6259553;27;96265;-62
2022/11/07 08:47:59;;;;;;;;;16.40;15.00;;;;;24.12;40.11;98798.22;6226818;27;98505;-62
2022/11/07 08:51:03;;;;;;;;;17.25;15.00;;;;;25.06;37.29;98801.91;6243470;27;96737;-61
2022/11/07 08:54:07;;;;;;;;;16.00;15.00;;;;;25.00;37.27;98804.00;6228727;27;96921;-62
2022/11/07 08:57:10;;;;;;;;;19.00;15.00;;;;;24.50;37.69;98806.94;6227501;28;96391;-62
2022/11/07 09:00:14;;;;;;;;;15.60;14.60;;;;;23.81;38.80;98808.31;6240722;27;96744;-63
2022/11/07 09:03:17;;;;;;;;;19.60;17.00;;;;;23.29;39.22;98812.44;6235235;27;96591;-61
2022/11/07 09:06:43;;;;;;;;;17.40;15.00;;;;;22.82;40.69;98817.19;6255586;27;96205;-63
2022/11/07 09:09:46;;;;;;;;;20.40;17.20;;;;;22.42;40.88;98812.41;6249496;27;96440;-64
2022/11/07 09:12:51;;;;;;;;;13.00;13.00;;;;;21.96;40.90;98801.34;6244445;27;96473;-65
2022/11/07 09:15:56;;;;;;;;;15.75;14.25;;;;;21.68;42.30;98818.75;6253693;27;96426;-64
2022/11/07 09:19:00;;;;;;;;;17.20;16.00;;;;;21.42;42.93;98810.03;6242029;27;96733;-63
2022/11/07 09:22:04;;;;;;;;;15.60;14.00;;;;;21.24;42.86;98814.38;6253871;27;96594;-64
2022/11/07 09:25:09;;;;;;;;;16.40;15.00;;;;;21.08;43.23;98818.38;6249594;27;96983;-63
2022/11/07 09:28:13;;;;;;;;;14.00;13.40;;;;;20.84;43.31;98812.06;6251376;27;97653;-65
2022/11/07 09:31:16;;;;;;;;;14.80;14.00;;;;;20.69;43.44;98818.53;6243860;27;96760;-64
2022/11/07 09:34:20;;;;;;;;;12.00;11.60;;;;;20.61;43.68;98822.72;6258525;27;96288;-63
2022/11/07 09:37:25;;;;;;;;;14.25;11.25;;;;;20.77;42.91;98826.91;6242254;27;96245;-65
2022/11/07 09:40:41;;;;;;;;;11.60;11.40;;;;;20.83;42.95;98824.94;6262592;27;96313;-63
2022/11/07 09:44:01;;;;;;;;;16.00;14.20;;;;;21.09;43.10;98831.81;6233133;28;96182;-63
2022/11/07 09:47:15;;;;;;;;;16.00;15.00;;;;;21.27;42.88;98835.72;6252592;27;96389;-64
2022/11/07 09:50:28;;;;;;;;;18.00;15.00;;;;;21.13;41.55;98829.28;6262969;27;96661;-63
2022/11/07 09:53:38;;;;;;;;;14.00;12.50;;;;;20.95;42.37;98832.78;6246808;27;97689;-63
2022/11/07 09:56:43;;;;;;;;;16.00;14.20;;;;;20.73;42.44;98830.53;6242158;27;96922;-64
2022/11/07 09:59:53;;;;;;;;;16.80;14.80;;;;;20.56;41.67;98836.47;6224618;28;96734;-63
2022/11/07 10:02:58;;;;;;;;;14.20;12.00;;;;;20.53;41.47;98839.75;6237632;27;96784;-63
2022/11/07 10:06:13;;;;;;;;;17.00;15.60;;;;;20.30;42.11;98841.34;6249092;27;96412;-63
2022/11/07 10:09:27;;;;;;;;;20.00;18.00;;;;;20.26;43.04;98839.41;6241503;27;96400;-65
2022/11/07 10:12:54;;;;;;;;;16.33;15.33;;;;;20.22;43.21;98841.09;6243784;27;96401;-67
2022/11/07 10:16:06;;;;;;;;;19.00;17.00;;;;;20.26;43.12;98832.03;6239458;27;96635;-64
2022/11/07 10:19:25;;;;;;;;;14.40;14.20;;;;;20.31;43.11;98829.28;6250984;27;96445;-65
2022/11/07 10:22:42;;;;;;;;;18.00;16.50;;;;;20.12;42.81;98835.69;6244720;27;96563;-62
2022/11/07 10:25:52;;;;;;;;;17.80;15.20;;;;;20.06;43.23;98834.09;6244400;27;96986;-62
2022/11/07 10:28:59;;;;;;;;;17.00;15.00;;;;;19.99;43.66;98834.41;6227494;27;97150;-62
2022/11/07 10:32:14;;;;;;;;;17.50;16.00;;;;;19.83;43.43;98821.94;6225314;27;97973;-63
2022/11/07 10:35:25;;;;;;;;;16.00;14.00;;;;;19.71;43.46;98824.19;6244821;27;96291;-63
2022/11/07 10:38:31;;;;;;;;;18.75;17.50;;;;;19.58;44.02;98831.13;6232332;28;96349;-62
2022/11/07 10:41:37;;;;;;;;;17.75;15.00;;;;;19.36;44.15;98836.09;6229067;28;96853;-62
2022/11/07 10:44:42;;;;;;;;;16.40;16.00;;;;;19.25;44.61;98835.34;6249603;27;96286;-63
2022/11/07 10:47:57;;;;;;;;;16.00;15.00;;;;;19.07;45.09;98825.00;6246375;27;96287;-63
2022/11/07 10:51:00;;;;;;;;;13.67;13.67;;;;;18.91;45.18;98820.69;6244799;27;96604;-62
2022/11/07 10:54:05;;;;;;;;;16.00;13.20;;;;;18.93;45.44;98835.69;6246584;27;97057;-63
2022/11/07 10:57:13;;;;;;;;;16.00;14.60;;;;;18.84;44.46;98836.53;6251406;27;97077;-65
2022/11/07 11:00:25;;;;;;;;;12.20;11.20;;;;;18.91;44.43;98840.59;6230535;27;96953;-62
2022/11/07 11:03:31;;;;;;;;;13.00;12.00;;;;;19.07;43.76;98835.94;6253120;27;96654;-62
2022/11/07 11:06:56;;;;;;;;;14.00;12.60;;;;;19.16;43.05;98845.19;6227865;27;96790;-66
2022/11/07 11:09:59;;;;;;;;;14.00;11.00;;;;;19.26;42.85;98844.31;6243291;27;96026;-64
2022/11/07 11:13:05;;;;;;;;;13.00;11.00;;;;;19.28;42.95;98844.88;6248921;27;98118;-65
2022/11/07 11:16:24;;;;;;;;;10.25;9.25;;;;;19.38;42.46;98840.19;6221510;27;97266;-64
2022/11/07 11:19:32;;;;;;;;;10.60;9.00;;;;;19.46;41.53;98839.63;6250755;27;97412;-64
2022/11/07 11:22:42;;;;;;;;;10.00;10.00;;;;;19.51;41.57;98847.00;6243087;27;96598;-63
2022/11/07 11:25:46;;;;;;;;;10.00;8.67;;;;;19.50;41.31;98845.34;6246179;27;96529;-65
2022/11/07 11:28:57;;;;;;;;;9.60;8.60;;;;;19.60;40.48;98839.84;6230540;27;97758;-63
2022/11/07 11:32:02;;;;;;;;;8.80;8.40;;;;;19.82;40.39;98842.19;6248366;27;96419;-63
2022/11/07 11:35:17;;;;;;;;;8.00;7.00;;;;;20.16;39.19;98836.75;6257299;27;96830;-62
2022/11/07 11:38:24;;;;;;;;;8.00;6.00;;;;;20.49;37.72;98835.97;6231433;28;97221;-64
2022/11/07 11:41:37;;;;;;;;;6.50;6.50;;;;;21.10;37.78;98825.22;6246611;27;96749;-63
2022/11/07 11:44:45;;;;;;;;;7.25;7.00;;;;;21.75;36.28;98838.41;6245355;27;96378;-65
2022/11/07 11:47:59;;;;;;;;;7.00;5.00;;;;;22.58;35.31;98826.72;6229920;27;96413;-63
2022/11/07 11:51:06;;;;;;;;;6.40;6.00;;;;;23.16;33.94;98829.78;6229929;28;98389;-63
2022/11/07 11:54:11;;;;;;;;;8.00;6.00;;;;;23.31;32.83;98830.28;6243933;27;96372;-63
2022/11/07 11:57:21;;;;;;;;;7.00;6.00;;;;;23.47;32.36;98836.31;6237926;27;96882;-66
2022/11/07 12:00:26;;;;;;;;;6.00;6.00;;;;;23.63;32.46;98836.81;6248435;27;96545;-62
2022/11/07 12:03:56;;;;;;;;;6.00;5.80;;;;;23.68;32.13;98845.78;6240460;27;96887;-64
2022/11/07 12:07:14;;;;;;;;;6.00;5.00;;;;;23.89;32.09;98843.38;6235024;27;96446;-63
2022/11/07 12:10:25;;;;;;;;;8.00;7.00;;;;;23.94;32.32;98832.25;6232479;27;96260;-63
2022/11/07 12:13:37;;;;;;;;;7.00;7.00;;;;;23.83;32.50;98839.13;6246483;27;96664;-63
2022/11/07 12:16:48;;;;;;;;;6.20;5.20;;;;;23.72;31.63;98834.94;6230946;27;97289;-64
2022/11/07 12:20:02;;;;;;;;;5.00;5.00;;;;;23.44;32.14;98828.66;6238399;27;97480;-66
2022/11/07 12:23:22;;;;;;;;;6.80;5.20;;;;;23.19;32.58;98831.91;6250558;27;96259;-65
2022/11/07 12:26:33;;;;;;;;;6.00;5.00;;;;;22.97;32.90;98826.31;6241349;28;96324;-65
2022/11/07 12:30:03;;;;;;;;;6.00;5.00;;;;;22.64;32.80;98825.50;6254349;27;96210;-63
2022/11/07 12:33:18;;;;;;;;;8.00;6.00;;;;;22.27;33.34;98827.22;6251194;27;96315;-63
2022/11/07 12:36:34;;;;;;;;;5.20;5.00;;;;;21.97;34.05;98822.19;6237073;27;96312;-66
2022/11/07 12:39:49;;;;;;;;;7.00;6.67;;;;;21.72;34.40;98820.59;6251387;27;96690;-65
2022/11/07 12:43:04;;;;;;;;;5.20;5.20;;;;;22.14;34.03;98825.22;6248504;27;96844;-65
2022/11/07 12:46:14;;;;;;;;;6.00;6.00;;;;;22.09;33.80;98833.53;6221983;27;97424;-65
2022/11/07 12:49:39;;;;;;;;;5.75;5.75;;;;;22.34;34.03;98835.88;6243254;27;96655;-64
2022/11/07 12:52:59;;;;;;;;;5.40;5.00;;;;;22.42;33.59;98840.72;6226980;27;96560;-65
2022/11/07 12:56:06;;;;;;;;;4.00;4.00;;;;;22.83;33.33;98835.34;6233286;27;97528;-63
2022/11/07 12:59:17;;;;;;;;;4.60;4.20;;;;;22.90;32.65;98840.44;6256573;27;96294;-65
2022/11/07 13:02:43;;;;;;;;;7.00;7.00;;;;;22.75;32.79;98840.72;6232002;27;97693;-64
2022/11/07 13:06:01;;;;;;;;;5.50;5.50;;;;;22.60;32.46;98847.25;6247252;27;96187;-63
2022/11/07 13:09:15;;;;;;;;;6.00;5.00;;;;;22.74;33.11;98842.66;6239607;28;96440;-63
2022/11/07 13:12:28;;;;;;;;;4.00;4.00;;;;;22.55;32.91;98847.34;6241037;28;96261;-65
2022/11/07 13:15:32;;;;;;;;;5.00;4.00;;;;;22.44;33.31;98854.94;6238249;27;96726;-65
2022/11/07 13:18:55;;;;;;;;;6.00;6.00;;;;;22.19;33.09;98854.53;6240567;28;96455;-63
2022/11/07 13:22:02;;;;;;;;;4.00;4.00;;;;;22.27;33.26;98851.13;6228473;27;96339;-66
2022/11/07 13:25:18;;;;;;;;;5.80;4.40;;;;;22.32;33.45;98851.03;6241358;27;96320;-63
2022/11/07 13:28:38;;;;;;;;;6.00;5.00;;;;;22.40;33.65;98858.59;6247148;27;96812;-63
2022/11/07 13:31:44;;;;;;;;;4.00;4.00;;;;;22.50;33.03;98858.44;6265182;27;96706;-63
2022/11/07 13:34:58;;;;;;;;;4.00;4.00;;;;;22.34;33.03;98854.28;6260259;27;96656;-64
2022/11/07 13:38:10;;;;;;;;;5.00;5.00;;;;;22.09;33.53;98844.50;6217524;27;98864;-63
2022/11/07 13:41:13;;;;;;;;;6.00;5.00;;;;;21.92;33.61;98856.00;6264728;27;96335;-64
2022/11/07 13:44:23;;;;;;;;;4.00;4.00;;;;;21.77;33.83;98867.19;6261221;27;96228;-63
2022/11/07 13:47:34;;;;;;;;;5.75;5.00;;;;;21.72;34.22;98853.53;6246766;27;97031;-63
2022/11/07 13:50:41;;;;;;;;;6.00;6.00;;;;;21.54;34.86;98859.81;6221862;28;96364;-64
2022/11/07 13:53:54;;;;;;;;;6.40;6.00;;;;;21.38;34.62;98856.44;6238589;27;96809;-64
2022/11/07 13:57:02;;;;;;;;;7.00;6.40;;;;;21.12;34.90;98866.03;6238683;28;96417;-64
2022/11/07 14:00:13;;;;;;;;;5.00;5.00;;;;;21.12;35.04;98872.34;6239451;28;97026;-65
2022/11/07 14:03:25;;;;;;;;;6.60;6.60;;;;;21.01;35.58;98864.53;6235447;28;96922;-65
2022/11/07 14:06:32;;;;;;;;;6.00;5.00;;;;;20.97;35.77;98874.41;6214198;27;96653;-63
2022/11/07 14:09:36;;;;;;;;;4.25;4.00;;;;;21.00;35.57;98882.06;6245995;27;96348;-63
2022/11/07 14:12:40;;;;;;;;;4.60;4.00;;;;;20.68;36.20;98879.91;6238806;28;96344;-64
2022/11/07 14:15:47;;;;;;;;;5.00;4.80;;;;;20.51;36.93;98890.47;6250039;27;96809;-65
2022/11/07 14:18:56;;;;;;;;;5.40;5.40;;;;;20.43;36.99;98896.56;6237472;27;96307;-65
2022/11/07 14:22:00;;;;;;;;;6.00;5.00;;;;;20.14;37.90;98890.97;6237234;28;96713;-65
2022/11/07 14:25:21;;;;;;;;;5.00;5.00;;;;;19.71;38.37;98898.88;6242817;27;96379;-65
2022/11/07 14:28:33;;;;;;;;;5.80;5.00;;;;;19.41;38.87;98907.97;6239206;27;96812;-67
2022/11/07 14:31:38;;;;;;;;;5.00;5.00;;;;;19.10;39.43;98905.63;6247548;27;96345;-64
2022/11/07 14:34:44;;;;;;;;;5.00;4.20;;;;;18.65;40.28;98881.91;6244799;27;96454;-64